Dresden, Indiana
Current Conditions -  °F | °C
As of 12:53 AM on Friday 28 Nov 2014 (Local Time) from KBMG Reporting Station
Haze Haze  
Wind Chill: 19°   Ceiling: Unl
Heat Index: 19°   Visibility: 6mi
Dew Point: 17°   Wind: 0mph
Humidity: 92%   Direction: NA
Pressure: 30.4"   Gusts: NA
Location:  38.9489°N, 86.7571°W
Report Text: KBMG 280553Z AUTO 00000KT 6SM BR CLR M07/M08 A3040 RMK AO2 SLP306 60000 T10721083 11028 21072 58002
Loading
Personal Weather Stations






























Interactive Weather Map New forecast layout! Learn more

10-Day Weather Forecast

Advertisements
Track Severe Weather on mobile